sensor_id;sensor_type;location;lat;lon;timestamp;P1;durP1;ratioP1;P2;durP2;ratioP2
934;SDS011;454;53.254;10.400;2023-11-21T05:01:54;10.88;;;7.20;;
934;SDS011;454;53.254;10.400;2023-11-21T05:04:21;13.10;;;8.50;;
934;SDS011;454;53.254;10.400;2023-11-21T05:06:48;17.42;;;9.07;;
934;SDS011;454;53.254;10.400;2023-11-21T05:09:15;8.45;;;5.90;;
934;SDS011;454;53.254;10.400;2023-11-21T05:11:42;8.63;;;7.18;;
934;SDS011;454;53.254;10.400;2023-11-21T05:14:09;9.07;;;6.32;;
934;SDS011;454;53.254;10.400;2023-11-21T05:16:35;11.30;;;7.78;;
934;SDS011;454;53.254;10.400;2023-11-21T05:19:04;9.95;;;6.78;;
934;SDS011;454;53.254;10.400;2023-11-21T05:21:31;12.48;;;8.18;;
934;SDS011;454;53.254;10.400;2023-11-21T05:23:58;15.35;;;7.63;;
934;SDS011;454;53.254;10.400;2023-11-21T05:26:25;13.70;;;7.40;;
934;SDS011;454;53.254;10.400;2023-11-21T05:28:52;12.77;;;6.88;;
934;SDS011;454;53.254;10.400;2023-11-21T05:31:19;12.10;;;7.55;;
934;SDS011;454;53.254;10.400;2023-11-21T05:33:46;18.42;;;7.20;;
934;SDS011;454;53.254;10.400;2023-11-21T05:36:14;12.05;;;6.70;;
934;SDS011;454;53.254;10.400;2023-11-21T05:38:41;11.38;;;7.50;;
934;SDS011;454;53.254;10.400;2023-11-21T05:41:08;15.43;;;8.60;;
934;SDS011;454;53.254;10.400;2023-11-21T05:43:36;10.02;;;6.75;;
934;SDS011;454;53.254;10.400;2023-11-21T05:46:03;8.55;;;7.15;;
934;SDS011;454;53.254;10.400;2023-11-21T05:48:30;8.07;;;5.90;;
934;SDS011;454;53.254;10.400;2023-11-21T05:50:57;8.15;;;6.30;;
934;SDS011;454;53.254;10.400;2023-11-21T05:53:26;14.93;;;7.45;;
934;SDS011;454;53.254;10.400;2023-11-21T05:55:52;14.30;;;6.80;;
934;SDS011;454;53.254;10.400;2023-11-21T05:58:19;14.75;;;8.00;;
934;SDS011;454;53.254;10.400;2023-11-21T06:00:46;11.35;;;7.72;;
934;SDS011;454;53.254;10.400;2023-11-21T06:03:12;10.70;;;6.55;;
934;SDS011;454;53.254;10.400;2023-11-21T06:05:39;9.93;;;6.65;;
934;SDS011;454;53.254;10.400;2023-11-21T06:08:06;10.00;;;7.07;;
934;SDS011;454;53.254;10.400;2023-11-21T06:10:34;13.07;;;7.20;;
934;SDS011;454;53.254;10.400;2023-11-21T06:13:01;8.55;;;7.00;;
934;SDS011;454;53.254;10.400;2023-11-21T06:15:28;11.73;;;7.05;;
934;SDS011;454;53.254;10.400;2023-11-21T06:17:55;9.27;;;6.55;;
934;SDS011;454;53.254;10.400;2023-11-21T06:20:22;12.52;;;7.43;;
934;SDS011;454;53.254;10.400;2023-11-21T06:22:49;12.25;;;6.90;;
934;SDS011;454;53.254;10.400;2023-11-21T06:25:16;12.52;;;8.00;;
934;SDS011;454;53.254;10.400;2023-11-21T06:27:45;10.43;;;7.45;;
934;SDS011;454;53.254;10.400;2023-11-21T06:30:13;12.38;;;7.50;;
934;SDS011;454;53.254;10.400;2023-11-21T06:32:40;9.30;;;7.00;;
934;SDS011;454;53.254;10.400;2023-11-21T06:35:10;7.95;;;5.47;;
934;SDS011;454;53.254;10.400;2023-11-21T06:37:38;9.63;;;7.15;;
934;SDS011;454;53.254;10.400;2023-11-21T06:40:05;9.98;;;5.95;;
934;SDS011;454;53.254;10.400;2023-11-21T06:42:34;8.95;;;7.22;;
934;SDS011;454;53.254;10.400;2023-11-21T06:45:03;8.73;;;6.93;;
934;SDS011;454;53.254;10.400;2023-11-21T06:47:30;10.38;;;7.82;;
934;SDS011;454;53.254;10.400;2023-11-21T06:49:58;7.72;;;6.53;;
934;SDS011;454;53.254;10.400;2023-11-21T06:52:25;9.65;;;6.30;;
934;SDS011;454;53.254;10.400;2023-11-21T06:54:52;10.95;;;7.15;;
934;SDS011;454;53.254;10.400;2023-11-21T06:57:18;10.80;;;6.32;;
934;SDS011;454;53.254;10.400;2023-11-21T06:59:46;9.20;;;7.88;;
934;SDS011;454;53.254;10.400;2023-11-21T07:02:14;7.63;;;6.85;;
934;SDS011;454;53.254;10.400;2023-11-21T07:04:43;8.73;;;7.00;;
934;SDS011;454;53.254;10.400;2023-11-21T07:07:10;14.73;;;8.30;;
934;SDS011;454;53.254;10.400;2023-11-21T07:09:36;10.43;;;7.30;;
934;SDS011;454;53.254;10.400;2023-11-21T07:12:03;10.75;;;6.80;;
934;SDS011;454;53.254;10.400;2023-11-21T07:14:32;9.55;;;7.53;;
934;SDS011;454;53.254;10.400;2023-11-21T07:16:59;12.88;;;7.35;;
934;SDS011;454;53.254;10.400;2023-11-21T07:19:27;13.52;;;7.43;;
934;SDS011;454;53.254;10.400;2023-11-21T07:21:54;9.00;;;7.30;;
934;SDS011;454;53.254;10.400;2023-11-21T07:24:21;8.85;;;7.50;;
934;SDS011;454;53.254;10.400;2023-11-21T07:26:48;10.40;;;7.45;;
934;SDS011;454;53.254;10.400;2023-11-21T07:29:15;9.50;;;6.72;;
934;SDS011;454;53.254;10.400;2023-11-21T07:31:42;13.88;;;6.70;;
934;SDS011;454;53.254;10.400;2023-11-21T07:34:08;12.45;;;6.60;;
934;SDS011;454;53.254;10.400;2023-11-21T07:36:38;9.70;;;6.75;;
934;SDS011;454;53.254;10.400;2023-11-21T07:39:05;14.98;;;8.82;;
934;SDS011;454;53.254;10.400;2023-11-21T07:41:31;12.27;;;7.70;;
934;SDS011;454;53.254;10.400;2023-11-21T07:43:58;15.68;;;8.35;;
934;SDS011;454;53.254;10.400;2023-11-21T07:46:25;12.75;;;7.05;;
934;SDS011;454;53.254;10.400;2023-11-21T07:48:52;13.80;;;7.57;;
934;SDS011;454;53.254;10.400;2023-11-21T07:51:20;12.45;;;6.05;;
934;SDS011;454;53.254;10.400;2023-11-21T07:53:48;10.80;;;5.95;;
934;SDS011;454;53.254;10.400;2023-11-21T07:56:15;9.32;;;6.60;;
934;SDS011;454;53.254;10.400;2023-11-21T07:58:42;12.90;;;7.10;;
934;SDS011;454;53.254;10.400;2023-11-21T08:01:09;10.82;;;6.10;;
934;SDS011;454;53.254;10.400;2023-11-21T08:03:36;12.48;;;7.70;;
934;SDS011;454;53.254;10.400;2023-11-21T08:06:03;10.57;;;7.05;;
934;SDS011;454;53.254;10.400;2023-11-21T08:08:30;10.65;;;7.90;;
934;SDS011;454;53.254;10.400;2023-11-21T08:10:59;12.65;;;7.00;;
934;SDS011;454;53.254;10.400;2023-11-21T08:13:27;9.13;;;6.25;;
934;SDS011;454;53.254;10.400;2023-11-21T08:15:55;14.52;;;7.65;;
934;SDS011;454;53.254;10.400;2023-11-21T08:18:26;11.57;;;7.10;;
934;SDS011;454;53.254;10.400;2023-11-21T08:20:54;13.23;;;7.25;;
934;SDS011;454;53.254;10.400;2023-11-21T08:23:21;11.73;;;7.00;;
934;SDS011;454;53.254;10.400;2023-11-21T08:25:50;9.65;;;6.55;;
934;SDS011;454;53.254;10.400;2023-11-21T08:28:19;12.10;;;8.00;;
934;SDS011;454;53.254;10.400;2023-11-21T08:30:50;12.23;;;6.97;;
934;SDS011;454;53.254;10.400;2023-11-21T08:33:17;12.85;;;7.35;;
934;SDS011;454;53.254;10.400;2023-11-21T08:35:44;9.98;;;6.53;;
934;SDS011;454;53.254;10.400;2023-11-21T08:38:11;13.02;;;8.20;;
934;SDS011;454;53.254;10.400;2023-11-21T08:40:38;13.05;;;7.40;;
934;SDS011;454;53.254;10.400;2023-11-21T08:43:05;6.53;;;5.88;;
934;SDS011;454;53.254;10.400;2023-11-21T08:45:33;9.68;;;6.75;;
934;SDS011;454;53.254;10.400;2023-11-21T08:48:00;8.55;;;6.28;;
934;SDS011;454;53.254;10.400;2023-11-21T08:50:27;13.35;;;7.60;;
934;SDS011;454;53.254;10.400;2023-11-21T08:52:53;11.65;;;7.10;;
934;SDS011;454;53.254;10.400;2023-11-21T08:55:20;8.15;;;5.78;;
934;SDS011;454;53.254;10.400;2023-11-21T08:57:47;11.02;;;6.22;;
934;SDS011;454;53.254;10.400;2023-11-21T09:00:14;9.93;;;6.55;;
934;SDS011;454;53.254;10.400;2023-11-21T09:02:43;10.02;;;7.00;;
934;SDS011;454;53.254;10.400;2023-11-21T09:05:11;14.43;;;7.75;;
934;SDS011;454;53.254;10.400;2023-11-21T09:07:38;13.95;;;9.15;;
934;SDS011;454;53.254;10.400;2023-11-21T09:10:07;12.98;;;8.18;;
934;SDS011;454;53.254;10.400;2023-11-21T09:12:34;11.07;;;6.80;;
934;SDS011;454;53.254;10.400;2023-11-21T09:15:02;10.48;;;7.68;;
934;SDS011;454;53.254;10.400;2023-11-21T09:17:29;8.25;;;6.90;;
934;SDS011;454;53.254;10.400;2023-11-21T09:19:57;9.63;;;6.25;;
934;SDS011;454;53.254;10.400;2023-11-21T09:22:24;9.32;;;5.35;;
934;SDS011;454;53.254;10.400;2023-11-21T09:24:52;10.32;;;6.68;;
934;SDS011;454;53.254;10.400;2023-11-21T09:27:19;9.98;;;7.90;;
934;SDS011;454;53.254;10.400;2023-11-21T09:29:46;8.77;;;5.97;;
934;SDS011;454;53.254;10.400;2023-11-21T09:32:14;9.27;;;6.25;;
934;SDS011;454;53.254;10.400;2023-11-21T09:34:43;12.95;;;8.10;;
934;SDS011;454;53.254;10.400;2023-11-21T09:37:11;12.23;;;6.10;;
934;SDS011;454;53.254;10.400;2023-11-21T09:39:38;12.75;;;6.70;;
934;SDS011;454;53.254;10.400;2023-11-21T09:42:08;9.48;;;6.40;;
934;SDS011;454;53.254;10.400;2023-11-21T09:44:41;9.60;;;5.93;;
934;SDS011;454;53.254;10.400;2023-11-21T09:47:14;7.03;;;6.20;;
934;SDS011;454;53.254;10.400;2023-11-21T09:49:42;10.35;;;5.80;;
934;SDS011;454;53.254;10.400;2023-11-21T09:52:18;7.05;;;5.25;;
934;SDS011;454;53.254;10.400;2023-11-21T09:54:50;8.73;;;5.40;;
934;SDS011;454;53.254;10.400;2023-11-21T09:57:18;8.65;;;6.35;;
934;SDS011;454;53.254;10.400;2023-11-21T09:59:46;9.95;;;5.68;;
934;SDS011;454;53.254;10.400;2023-11-21T10:02:16;5.22;;;4.50;;
934;SDS011;454;53.254;10.400;2023-11-21T10:04:45;11.38;;;5.25;;
934;SDS011;454;53.254;10.400;2023-11-21T10:07:13;7.45;;;5.32;;
934;SDS011;454;53.254;10.400;2023-11-21T10:09:45;7.80;;;6.18;;
934;SDS011;454;53.254;10.400;2023-11-21T10:12:13;5.75;;;4.63;;
934;SDS011;454;53.254;10.400;2023-11-21T10:14:41;6.65;;;6.07;;
934;SDS011;454;53.254;10.400;2023-11-21T10:17:10;7.15;;;5.78;;
934;SDS011;454;53.254;10.400;2023-11-21T10:19:38;6.15;;;5.10;;
934;SDS011;454;53.254;10.400;2023-11-21T10:22:05;7.35;;;5.95;;
934;SDS011;454;53.254;10.400;2023-11-21T10:24:32;10.63;;;5.47;;
934;SDS011;454;53.254;10.400;2023-11-21T10:27:00;6.22;;;5.07;;
934;SDS011;454;53.254;10.400;2023-11-21T10:29:28;7.00;;;5.03;;
934;SDS011;454;53.254;10.400;2023-11-21T10:31:56;5.65;;;5.15;;
934;SDS011;454;53.254;10.400;2023-11-21T10:34:24;6.38;;;5.25;;
934;SDS011;454;53.254;10.400;2023-11-21T10:36:52;6.60;;;5.07;;
934;SDS011;454;53.254;10.400;2023-11-21T10:39:22;7.90;;;6.45;;
934;SDS011;454;53.254;10.400;2023-11-21T10:41:52;6.82;;;5.43;;
934;SDS011;454;53.254;10.400;2023-11-21T10:44:22;5.97;;;4.95;;
934;SDS011;454;53.254;10.400;2023-11-21T10:46:49;5.18;;;4.72;;
934;SDS011;454;53.254;10.400;2023-11-21T10:49:19;6.45;;;5.28;;
934;SDS011;454;53.254;10.400;2023-11-21T10:51:46;8.38;;;5.32;;
934;SDS011;454;53.254;10.400;2023-11-21T10:54:17;5.88;;;5.35;;
934;SDS011;454;53.254;10.400;2023-11-21T10:56:44;6.97;;;5.40;;
934;SDS011;454;53.254;10.400;2023-11-21T10:59:13;7.35;;;4.65;;
934;SDS011;454;53.254;10.400;2023-11-21T11:01:42;6.20;;;4.38;;
934;SDS011;454;53.254;10.400;2023-11-21T11:04:11;4.75;;;3.53;;
934;SDS011;454;53.254;10.400;2023-11-21T11:06:42;7.47;;;4.50;;
934;SDS011;454;53.254;10.400;2023-11-21T11:09:10;4.57;;;4.15;;
934;SDS011;454;53.254;10.400;2023-11-21T11:11:41;4.38;;;4.05;;
934;SDS011;454;53.254;10.400;2023-11-21T11:14:09;4.78;;;4.43;;
934;SDS011;454;53.254;10.400;2023-11-21T11:16:38;3.72;;;3.42;;
934;SDS011;454;53.254;10.400;2023-11-21T11:19:07;4.10;;;3.70;;
934;SDS011;454;53.254;10.400;2023-11-21T11:21:37;4.30;;;3.90;;
934;SDS011;454;53.254;10.400;2023-11-21T11:24:17;5.25;;;4.60;;
934;SDS011;454;53.254;10.400;2023-11-21T11:27:01;5.25;;;4.00;;
934;SDS011;454;53.254;10.400;2023-11-21T11:29:39;4.60;;;4.20;;
934;SDS011;454;53.254;10.400;2023-11-21T11:32:16;4.53;;;4.22;;
934;SDS011;454;53.254;10.400;2023-11-21T11:34:50;4.15;;;3.75;;
934;SDS011;454;53.254;10.400;2023-11-21T11:37:22;4.57;;;4.18;;
934;SDS011;454;53.254;10.400;2023-11-21T11:39:49;3.80;;;3.50;;
934;SDS011;454;53.254;10.400;2023-11-21T11:42:19;5.90;;;4.25;;
934;SDS011;454;53.254;10.400;2023-11-21T11:44:49;2.55;;;2.15;;
934;SDS011;454;53.254;10.400;2023-11-21T11:47:19;4.35;;;2.97;;
934;SDS011;454;53.254;10.400;2023-11-21T11:49:59;2.92;;;2.80;;
934;SDS011;454;53.254;10.400;2023-11-21T11:52:36;4.45;;;3.13;;
934;SDS011;454;53.254;10.400;2023-11-21T11:55:05;2.92;;;2.78;;
934;SDS011;454;53.254;10.400;2023-11-21T11:57:35;3.30;;;3.05;;
934;SDS011;454;53.254;10.400;2023-11-21T12:02:48;3.00;;;2.90;;
934;SDS011;454;53.254;10.400;2023-11-21T12:05:17;4.40;;;3.97;;
934;SDS011;454;53.254;10.400;2023-11-21T12:07:44;3.05;;;2.88;;
934;SDS011;454;53.254;10.400;2023-11-21T12:10:13;3.30;;;3.20;;
934;SDS011;454;53.254;10.400;2023-11-21T12:12:43;4.15;;;2.72;;
934;SDS011;454;53.254;10.400;2023-11-21T12:15:11;3.80;;;2.85;;
934;SDS011;454;53.254;10.400;2023-11-21T12:17:38;3.17;;;2.97;;
934;SDS011;454;53.254;10.400;2023-11-21T12:20:07;2.85;;;2.70;;
934;SDS011;454;53.254;10.400;2023-11-21T12:22:40;2.75;;;2.65;;
934;SDS011;454;53.254;10.400;2023-11-21T12:25:12;3.05;;;2.85;;
934;SDS011;454;53.254;10.400;2023-11-21T12:27:41;2.80;;;2.35;;
934;SDS011;454;53.254;10.400;2023-11-21T12:30:10;2.83;;;2.40;;
934;SDS011;454;53.254;10.400;2023-11-21T12:32:40;2.85;;;2.65;;
934;SDS011;454;53.254;10.400;2023-11-21T12:35:09;2.55;;;2.45;;
934;SDS011;454;53.254;10.400;2023-11-21T12:37:36;3.42;;;2.67;;
934;SDS011;454;53.254;10.400;2023-11-21T12:40:04;3.80;;;2.00;;
934;SDS011;454;53.254;10.400;2023-11-21T12:42:32;3.25;;;3.00;;
934;SDS011;454;53.254;10.400;2023-11-21T12:45:07;3.05;;;2.88;;
934;SDS011;454;53.254;10.400;2023-11-21T12:47:45;2.95;;;2.75;;
934;SDS011;454;53.254;10.400;2023-11-21T12:50:14;5.13;;;3.35;;
934;SDS011;454;53.254;10.400;2023-11-21T12:52:44;2.58;;;2.42;;
934;SDS011;454;53.254;10.400;2023-11-21T12:55:13;3.03;;;2.08;;
934;SDS011;454;53.254;10.400;2023-11-21T12:57:42;3.47;;;3.22;;
934;SDS011;454;53.254;10.400;2023-11-21T13:00:10;3.63;;;3.42;;
934;SDS011;454;53.254;10.400;2023-11-21T13:02:49;4.40;;;4.00;;
934;SDS011;454;53.254;10.400;2023-11-21T13:05:24;4.32;;;3.95;;
934;SDS011;454;53.254;10.400;2023-11-21T13:07:52;3.40;;;3.10;;
934;SDS011;454;53.254;10.400;2023-11-21T13:10:20;3.03;;;2.83;;
934;SDS011;454;53.254;10.400;2023-11-21T13:12:51;4.13;;;3.00;;
934;SDS011;454;53.254;10.400;2023-11-21T13:15:18;3.80;;;3.58;;
934;SDS011;454;53.254;10.400;2023-11-21T13:17:45;3.55;;;3.25;;
934;SDS011;454;53.254;10.400;2023-11-21T13:20:12;2.92;;;2.72;;
934;SDS011;454;53.254;10.400;2023-11-21T13:22:46;8.68;;;3.35;;
934;SDS011;454;53.254;10.400;2023-11-21T13:25:14;3.67;;;3.40;;
934;SDS011;454;53.254;10.400;2023-11-21T13:27:42;2.20;;;2.10;;
934;SDS011;454;53.254;10.400;2023-11-21T13:30:10;4.63;;;3.10;;
934;SDS011;454;53.254;10.400;2023-11-21T13:32:40;5.57;;;3.20;;
934;SDS011;454;53.254;10.400;2023-11-21T13:35:07;3.08;;;2.53;;
934;SDS011;454;53.254;10.400;2023-11-21T13:37:40;3.30;;;3.03;;
934;SDS011;454;53.254;10.400;2023-11-21T13:40:09;3.63;;;3.42;;
934;SDS011;454;53.254;10.400;2023-11-21T13:42:39;5.95;;;4.00;;
934;SDS011;454;53.254;10.400;2023-11-21T13:45:07;5.95;;;3.65;;
934;SDS011;454;53.254;10.400;2023-11-21T13:47:34;2.90;;;2.72;;
934;SDS011;454;53.254;10.400;2023-11-21T13:50:03;4.10;;;3.78;;
934;SDS011;454;53.254;10.400;2023-11-21T13:52:33;4.53;;;3.00;;
934;SDS011;454;53.254;10.400;2023-11-21T13:55:01;3.60;;;3.30;;
934;SDS011;454;53.254;10.400;2023-11-21T13:57:33;3.35;;;3.05;;
934;SDS011;454;53.254;10.400;2023-11-21T14:00:00;4.00;;;3.40;;
934;SDS011;454;53.254;10.400;2023-11-21T14:02:26;3.88;;;3.58;;
934;SDS011;454;53.254;10.400;2023-11-21T14:04:59;4.93;;;3.28;;
934;SDS011;454;53.254;10.400;2023-11-21T14:07:34;3.15;;;3.05;;
934;SDS011;454;53.254;10.400;2023-11-21T14:10:00;3.72;;;3.38;;
934;SDS011;454;53.254;10.400;2023-11-21T14:12:28;4.20;;;3.50;;
934;SDS011;454;53.254;10.400;2023-11-21T14:15:02;7.47;;;4.10;;
934;SDS011;454;53.254;10.400;2023-11-21T14:17:34;6.30;;;4.50;;
934;SDS011;454;53.254;10.400;2023-11-21T14:20:03;3.97;;;3.55;;
934;SDS011;454;53.254;10.400;2023-11-21T14:22:31;3.90;;;2.72;;
934;SDS011;454;53.254;10.400;2023-11-21T14:24:57;4.53;;;4.22;;
934;SDS011;454;53.254;10.400;2023-11-21T14:27:28;3.53;;;3.33;;
934;SDS011;454;53.254;10.400;2023-11-21T14:29:55;3.78;;;3.55;;
934;SDS011;454;53.254;10.400;2023-11-21T14:32:23;4.00;;;3.65;;
934;SDS011;454;53.254;10.400;2023-11-21T14:34:51;2.65;;;2.55;;
934;SDS011;454;53.254;10.400;2023-11-21T14:37:17;3.83;;;3.10;;
934;SDS011;454;53.254;10.400;2023-11-21T14:39:44;13.40;;;4.53;;
934;SDS011;454;53.254;10.400;2023-11-21T14:42:14;11.88;;;3.80;;
934;SDS011;454;53.254;10.400;2023-11-21T14:44:46;3.80;;;3.50;;
934;SDS011;454;53.254;10.400;2023-11-21T14:47:13;3.88;;;3.53;;
934;SDS011;454;53.254;10.400;2023-11-21T14:49:42;3.38;;;3.17;;
934;SDS011;454;53.254;10.400;2023-11-21T14:52:19;6.22;;;4.28;;
934;SDS011;454;53.254;10.400;2023-11-21T14:54:58;5.65;;;5.25;;
934;SDS011;454;53.254;10.400;2023-11-21T14:57:46;3.78;;;3.47;;
934;SDS011;454;53.254;10.400;2023-11-21T15:00:15;4.28;;;4.05;;
934;SDS011;454;53.254;10.400;2023-11-21T15:03:03;3.78;;;3.58;;
934;SDS011;454;53.254;10.400;2023-11-21T15:05:31;4.75;;;4.35;;
934;SDS011;454;53.254;10.400;2023-11-21T15:08:00;4.43;;;4.03;;
934;SDS011;454;53.254;10.400;2023-11-21T15:10:38;5.75;;;5.25;;
934;SDS011;454;53.254;10.400;2023-11-21T15:13:11;8.85;;;4.68;;
934;SDS011;454;53.254;10.400;2023-11-21T15:15:37;6.43;;;4.47;;
934;SDS011;454;53.254;10.400;2023-11-21T15:18:04;5.45;;;4.93;;
934;SDS011;454;53.254;10.400;2023-11-21T15:20:32;4.05;;;3.85;;
934;SDS011;454;53.254;10.400;2023-11-21T15:23:00;4.32;;;4.03;;
934;SDS011;454;53.254;10.400;2023-11-21T15:25:28;4.15;;;3.85;;
934;SDS011;454;53.254;10.400;2023-11-21T15:27:55;4.22;;;3.83;;
934;SDS011;454;53.254;10.400;2023-11-21T15:30:21;3.88;;;3.60;;
934;SDS011;454;53.254;10.400;2023-11-21T15:32:50;3.97;;;3.78;;
934;SDS011;454;53.254;10.400;2023-11-21T15:35:18;3.30;;;3.15;;
934;SDS011;454;53.254;10.400;2023-11-21T15:37:46;4.20;;;3.83;;
934;SDS011;454;53.254;10.400;2023-11-21T15:40:12;3.55;;;3.25;;
934;SDS011;454;53.254;10.400;2023-11-21T15:42:41;2.75;;;2.55;;
934;SDS011;454;53.254;10.400;2023-11-21T15:45:09;2.67;;;2.58;;
934;SDS011;454;53.254;10.400;2023-11-21T15:47:35;7.70;;;3.63;;
934;SDS011;454;53.254;10.400;2023-11-21T15:50:03;3.75;;;3.42;;
934;SDS011;454;53.254;10.400;2023-11-21T15:52:33;2.70;;;2.50;;
934;SDS011;454;53.254;10.400;2023-11-21T15:55:01;3.38;;;3.17;;
934;SDS011;454;53.254;10.400;2023-11-21T15:57:28;4.03;;;3.78;;
934;SDS011;454;53.254;10.400;2023-11-21T15:59:56;3.60;;;3.30;;
934;SDS011;454;53.254;10.400;2023-11-21T16:02:22;4.57;;;3.70;;
934;SDS011;454;53.254;10.400;2023-11-21T16:04:49;3.58;;;3.38;;
934;SDS011;454;53.254;10.400;2023-11-21T16:07:16;3.47;;;2.60;;
934;SDS011;454;53.254;10.400;2023-11-21T16:09:43;3.88;;;3.40;;
934;SDS011;454;53.254;10.400;2023-11-21T16:12:11;3.47;;;3.17;;
934;SDS011;454;53.254;10.400;2023-11-21T16:14:38;3.67;;;2.53;;
934;SDS011;454;53.254;10.400;2023-11-21T16:17:07;2.30;;;2.22;;
934;SDS011;454;53.254;10.400;2023-11-21T16:19:34;2.00;;;1.73;;
934;SDS011;454;53.254;10.400;2023-11-21T16:22:01;2.53;;;2.40;;
934;SDS011;454;53.254;10.400;2023-11-21T16:24:28;3.17;;;3.00;;
934;SDS011;454;53.254;10.400;2023-11-21T16:26:55;2.92;;;2.72;;
934;SDS011;454;53.254;10.400;2023-11-21T16:29:23;3.35;;;3.10;;
934;SDS011;454;53.254;10.400;2023-11-21T16:31:51;2.53;;;2.42;;
934;SDS011;454;53.254;10.400;2023-11-21T16:34:19;2.50;;;2.38;;
934;SDS011;454;53.254;10.400;2023-11-21T16:36:47;2.83;;;2.60;;
934;SDS011;454;53.254;10.400;2023-11-21T16:39:14;3.13;;;2.95;;
934;SDS011;454;53.254;10.400;2023-11-21T16:41:41;2.80;;;2.60;;
934;SDS011;454;53.254;10.400;2023-11-21T16:44:12;3.10;;;2.90;;
934;SDS011;454;53.254;10.400;2023-11-21T16:46:42;2.75;;;2.55;;
934;SDS011;454;53.254;10.400;2023-11-21T16:49:12;5.30;;;3.28;;
934;SDS011;454;53.254;10.400;2023-11-21T16:51:39;2.95;;;2.80;;
934;SDS011;454;53.254;10.400;2023-11-21T16:54:05;3.45;;;3.00;;
934;SDS011;454;53.254;10.400;2023-11-21T16:56:34;3.63;;;3.05;;
934;SDS011;454;53.254;10.400;2023-11-21T16:59:01;3.42;;;3.10;;
934;SDS011;454;53.254;10.400;2023-11-21T17:01:28;3.15;;;2.95;;
934;SDS011;454;53.254;10.400;2023-11-21T17:03:56;3.08;;;2.88;;
934;SDS011;454;53.254;10.400;2023-11-21T17:06:23;3.15;;;2.67;;
934;SDS011;454;53.254;10.400;2023-11-21T17:08:51;2.90;;;2.70;;
934;SDS011;454;53.254;10.400;2023-11-21T17:11:18;2.83;;;2.47;;
934;SDS011;454;53.254;10.400;2023-11-21T17:13:45;2.78;;;2.50;;
934;SDS011;454;53.254;10.400;2023-11-21T17:16:11;4.65;;;2.88;;
934;SDS011;454;53.254;10.400;2023-11-21T17:18:38;3.22;;;3.10;;
934;SDS011;454;53.254;10.400;2023-11-21T17:21:06;1.88;;;1.77;;
934;SDS011;454;53.254;10.400;2023-11-21T17:23:34;1.85;;;1.75;;
934;SDS011;454;53.254;10.400;2023-11-21T17:26:00;1.23;;;1.23;;
934;SDS011;454;53.254;10.400;2023-11-21T17:28:27;4.32;;;2.05;;
934;SDS011;454;53.254;10.400;2023-11-21T17:30:54;2.13;;;1.92;;
934;SDS011;454;53.254;10.400;2023-11-21T17:33:21;1.75;;;1.65;;
934;SDS011;454;53.254;10.400;2023-11-21T17:35:48;2.20;;;2.10;;
934;SDS011;454;53.254;10.400;2023-11-21T17:38:16;6.00;;;2.63;;
934;SDS011;454;53.254;10.400;2023-11-21T17:40:43;7.40;;;3.13;;
934;SDS011;454;53.254;10.400;2023-11-21T17:43:10;1.88;;;1.77;;
934;SDS011;454;53.254;10.400;2023-11-21T17:45:38;2.40;;;2.00;;
934;SDS011;454;53.254;10.400;2023-11-21T17:48:04;3.38;;;3.03;;
934;SDS011;454;53.254;10.400;2023-11-21T17:50:32;2.08;;;1.98;;
934;SDS011;454;53.254;10.400;2023-11-21T17:52:59;2.13;;;2.03;;
934;SDS011;454;53.254;10.400;2023-11-21T17:55:27;2.50;;;2.30;;
934;SDS011;454;53.254;10.400;2023-11-21T17:57:54;2.25;;;2.15;;
934;SDS011;454;53.254;10.400;2023-11-21T18:00:22;2.72;;;2.53;;
934;SDS011;454;53.254;10.400;2023-11-21T18:02:51;1.95;;;1.80;;
934;SDS011;454;53.254;10.400;2023-11-21T18:05:18;2.63;;;2.42;;
934;SDS011;454;53.254;10.400;2023-11-21T18:07:46;2.20;;;2.20;;
934;SDS011;454;53.254;10.400;2023-11-21T18:10:13;2.00;;;1.90;;
934;SDS011;454;53.254;10.400;2023-11-21T18:12:42;1.60;;;1.50;;
934;SDS011;454;53.254;10.400;2023-11-21T18:15:09;2.13;;;2.03;;
934;SDS011;454;53.254;10.400;2023-11-21T18:17:39;1.80;;;1.70;;
934;SDS011;454;53.254;10.400;2023-11-21T18:20:06;1.98;;;1.95;;
934;SDS011;454;53.254;10.400;2023-11-21T18:22:35;2.88;;;2.67;;
934;SDS011;454;53.254;10.400;2023-11-21T18:25:02;2.30;;;2.10;;
934;SDS011;454;53.254;10.400;2023-11-21T18:27:30;1.90;;;1.73;;
934;SDS011;454;53.254;10.400;2023-11-21T18:29:58;2.15;;;2.05;;
934;SDS011;454;53.254;10.400;2023-11-21T18:32:25;1.90;;;1.90;;
934;SDS011;454;53.254;10.400;2023-11-21T18:34:52;1.88;;;1.80;;
934;SDS011;454;53.254;10.400;2023-11-21T18:37:20;1.83;;;1.73;;
934;SDS011;454;53.254;10.400;2023-11-21T18:39:48;1.58;;;1.48;;
934;SDS011;454;53.254;10.400;2023-11-21T18:42:15;2.00;;;1.65;;
934;SDS011;454;53.254;10.400;2023-11-21T18:44:43;1.45;;;1.35;;
934;SDS011;454;53.254;10.400;2023-11-21T18:47:12;2.22;;;2.03;;
934;SDS011;454;53.254;10.400;2023-11-21T18:49:40;3.25;;;2.30;;
934;SDS011;454;53.254;10.400;2023-11-21T18:52:07;1.40;;;1.40;;
934;SDS011;454;53.254;10.400;2023-11-21T18:54:35;2.25;;;2.05;;
934;SDS011;454;53.254;10.400;2023-11-21T18:57:02;1.65;;;1.65;;
934;SDS011;454;53.254;10.400;2023-11-21T18:59:29;2.08;;;1.20;;
934;SDS011;454;53.254;10.400;2023-11-21T19:01:56;2.50;;;2.30;;
934;SDS011;454;53.254;10.400;2023-11-21T19:04:26;2.75;;;2.55;;
934;SDS011;454;53.254;10.400;2023-11-21T19:06:54;2.40;;;2.20;;
934;SDS011;454;53.254;10.400;2023-11-21T19:09:24;2.35;;;2.15;;
934;SDS011;454;53.254;10.400;2023-11-21T19:11:51;3.47;;;3.28;;
934;SDS011;454;53.254;10.400;2023-11-21T19:14:17;5.60;;;3.67;;
934;SDS011;454;53.254;10.400;2023-11-21T19:16:43;5.50;;;4.00;;
934;SDS011;454;53.254;10.400;2023-11-21T19:19:11;2.72;;;2.47;;
934;SDS011;454;53.254;10.400;2023-11-21T19:21:39;1.80;;;1.70;;
934;SDS011;454;53.254;10.400;2023-11-21T19:24:06;4.13;;;3.35;;
934;SDS011;454;53.254;10.400;2023-11-21T19:26:33;5.35;;;2.20;;
934;SDS011;454;53.254;10.400;2023-11-21T19:29:03;3.22;;;2.53;;
934;SDS011;454;53.254;10.400;2023-11-21T19:31:30;3.05;;;2.35;;
934;SDS011;454;53.254;10.400;2023-11-21T19:33:57;2.78;;;2.67;;
934;SDS011;454;53.254;10.400;2023-11-21T19:36:24;6.05;;;1.95;;
934;SDS011;454;53.254;10.400;2023-11-21T19:38:52;3.38;;;3.17;;
934;SDS011;454;53.254;10.400;2023-11-21T19:41:20;1.83;;;1.83;;
934;SDS011;454;53.254;10.400;2023-11-21T19:43:48;2.53;;;2.30;;
934;SDS011;454;53.254;10.400;2023-11-21T19:46:16;2.25;;;2.10;;
934;SDS011;454;53.254;10.400;2023-11-21T19:48:43;2.70;;;2.40;;
934;SDS011;454;53.254;10.400;2023-11-21T19:51:11;1.90;;;1.80;;
934;SDS011;454;53.254;10.400;2023-11-21T19:53:38;2.42;;;2.20;;
934;SDS011;454;53.254;10.400;2023-11-21T19:56:07;2.05;;;1.90;;
934;SDS011;454;53.254;10.400;2023-11-21T19:58:34;2.30;;;2.20;;
934;SDS011;454;53.254;10.400;2023-11-21T20:01:01;3.80;;;2.45;;
934;SDS011;454;53.254;10.400;2023-11-21T20:03:28;4.97;;;2.88;;
934;SDS011;454;53.254;10.400;2023-11-21T20:05:54;2.30;;;1.70;;
934;SDS011;454;53.254;10.400;2023-11-21T20:08:21;2.60;;;2.10;;
934;SDS011;454;53.254;10.400;2023-11-21T20:10:48;3.53;;;3.22;;
934;SDS011;454;53.254;10.400;2023-11-21T20:13:16;2.33;;;2.10;;
934;SDS011;454;53.254;10.400;2023-11-21T20:15:43;3.22;;;2.95;;
934;SDS011;454;53.254;10.400;2023-11-21T20:18:10;5.22;;;2.20;;
934;SDS011;454;53.254;10.400;2023-11-21T20:20:37;2.30;;;2.20;;
934;SDS011;454;53.254;10.400;2023-11-21T20:23:04;2.63;;;2.05;;
934;SDS011;454;53.254;10.400;2023-11-21T20:25:31;2.58;;;2.38;;
934;SDS011;454;53.254;10.400;2023-11-21T20:27:58;2.47;;;2.30;;
934;SDS011;454;53.254;10.400;2023-11-21T20:30:26;4.50;;;2.60;;
934;SDS011;454;53.254;10.400;2023-11-21T20:32:53;2.03;;;1.85;;
934;SDS011;454;53.254;10.400;2023-11-21T20:35:20;2.55;;;2.45;;
934;SDS011;454;53.254;10.400;2023-11-21T20:37:47;1.80;;;1.80;;